createdAt,value
2017-07-19T00:00:42.044Z,11.40
2017-07-19T00:03:10.375Z,12.20
2017-07-19T00:05:38.719Z,9.93
2017-07-19T00:08:07.074Z,10.70
2017-07-19T00:10:35.431Z,11.90
2017-07-19T00:13:03.766Z,10.40
2017-07-19T00:15:32.280Z,11.43
2017-07-19T00:18:00.604Z,11.13
2017-07-19T00:20:28.951Z,9.60
2017-07-19T00:22:57.318Z,10.80
2017-07-19T00:25:25.645Z,10.70
2017-07-19T00:27:53.993Z,12.23
2017-07-19T00:30:22.337Z,11.37
2017-07-19T00:32:50.691Z,10.80
2017-07-19T00:35:19.028Z,11.23
2017-07-19T00:37:47.386Z,12.83
2017-07-19T00:40:15.734Z,12.07
2017-07-19T00:42:44.097Z,11.30
2017-07-19T00:45:12.454Z,11.47
2017-07-19T00:47:40.790Z,12.73
2017-07-19T00:50:09.152Z,11.40
2017-07-19T00:52:37.503Z,12.73
2017-07-19T00:55:05.862Z,13.03
2017-07-19T00:57:34.200Z,11.37
2017-07-19T01:00:06.076Z,12.20
2017-07-19T01:02:34.478Z,12.70
2017-07-19T01:05:02.843Z,11.10
2017-07-19T01:07:31.175Z,12.20
2017-07-19T01:09:59.577Z,11.13
2017-07-19T01:12:27.920Z,12.37
2017-07-19T01:14:56.264Z,11.87
2017-07-19T01:17:24.624Z,12.30
2017-07-19T01:19:52.975Z,12.03
2017-07-19T01:22:21.348Z,11.63
2017-07-19T01:24:49.715Z,13.10
2017-07-19T01:27:18.081Z,12.43
2017-07-19T01:29:46.411Z,11.70
2017-07-19T01:32:14.770Z,13.80
2017-07-19T01:34:43.108Z,12.20
2017-07-19T01:37:11.482Z,12.40
2017-07-19T01:39:39.823Z,12.90
2017-07-19T01:42:08.185Z,11.50
2017-07-19T01:44:50.188Z,12.10
2017-07-19T01:47:18.561Z,11.60
2017-07-19T01:49:46.906Z,11.23
2017-07-19T01:52:15.275Z,12.40
2017-07-19T01:54:43.614Z,12.07
2017-07-19T01:57:12.010Z,11.90
2017-07-19T01:59:40.387Z,11.90
2017-07-19T02:02:08.732Z,11.90
2017-07-19T02:04:37.099Z,12.50
2017-07-19T02:07:05.433Z,13.20
2017-07-19T02:09:33.786Z,11.53
2017-07-19T02:12:02.162Z,11.57
2017-07-19T02:14:30.512Z,13.43
2017-07-19T02:16:58.847Z,12.30
2017-07-19T02:19:27.212Z,12.50
2017-07-19T02:21:55.621Z,12.03
2017-07-19T02:24:23.962Z,13.53
2017-07-19T02:26:52.312Z,12.90
2017-07-19T02:29:20.642Z,12.80
2017-07-19T02:31:49.002Z,13.10
2017-07-19T02:34:17.340Z,12.10
2017-07-19T02:36:51.941Z,13.20
2017-07-19T02:39:20.279Z,14.10
2017-07-19T02:41:48.628Z,12.30
2017-07-19T02:44:16.955Z,13.37
2017-07-19T02:46:45.310Z,13.10
2017-07-19T02:49:13.628Z,13.30
2017-07-19T02:51:41.952Z,13.87
2017-07-19T02:54:10.297Z,13.20
2017-07-19T02:56:38.652Z,12.83
2017-07-19T02:59:07.001Z,11.87
2017-07-19T03:01:35.331Z,13.70
2017-07-19T03:04:03.671Z,13.80
2017-07-19T03:06:52.681Z,13.93
2017-07-19T03:09:21.036Z,12.67
2017-07-19T03:11:49.376Z,13.60
2017-07-19T03:14:17.717Z,14.40
2017-07-19T03:16:46.175Z,15.60
2017-07-19T03:19:14.528Z,14.70
2017-07-19T03:21:42.861Z,13.40
2017-07-19T03:24:11.201Z,13.17
2017-07-19T03:29:39.000Z,14.67
2017-07-19T03:32:07.350Z,14.20
2017-07-19T03:34:35.676Z,15.80
2017-07-19T03:37:04.030Z,14.77
2017-07-19T03:39:32.365Z,14.20
2017-07-19T03:42:00.710Z,13.20
2017-07-19T03:44:29.037Z,14.13
2017-07-19T03:46:57.389Z,13.60
2017-07-19T03:49:25.714Z,13.40
2017-07-19T03:51:54.066Z,13.47
2017-07-19T03:54:22.392Z,13.63
2017-07-19T03:56:50.737Z,13.80
2017-07-19T03:59:19.068Z,14.00
2017-07-19T04:01:47.731Z,14.80
2017-07-19T04:04:16.098Z,13.40
2017-07-19T04:06:44.424Z,13.00
2017-07-19T04:09:12.782Z,12.80
2017-07-19T04:11:41.176Z,12.60
2017-07-19T04:14:09.546Z,13.80
2017-07-19T04:16:37.890Z,13.70
2017-07-19T04:19:06.248Z,15.43
2017-07-19T04:21:34.578Z,15.17
2017-07-19T04:24:02.932Z,14.63
2017-07-19T04:26:31.307Z,13.70
2017-07-19T04:28:59.668Z,15.00
2017-07-19T04:31:28.058Z,14.10
2017-07-19T04:33:56.394Z,14.80
2017-07-19T04:36:24.763Z,15.30
2017-07-19T04:38:53.190Z,15.10
2017-07-19T04:41:21.589Z,16.17
2017-07-19T04:43:49.908Z,16.60
2017-07-19T04:46:18.270Z,15.30
2017-07-19T04:48:46.597Z,16.27
2017-07-19T04:51:14.949Z,15.10
2017-07-19T04:53:43.333Z,15.40
2017-07-19T04:56:11.707Z,15.67
2017-07-19T04:58:40.025Z,15.17
2017-07-19T05:01:08.350Z,15.20
2017-07-19T05:03:36.703Z,15.67
2017-07-19T05:06:05.024Z,15.50
2017-07-19T05:08:33.538Z,15.67
2017-07-19T05:11:01.862Z,15.87
2017-07-19T05:13:30.210Z,15.53
2017-07-19T05:15:58.530Z,16.53
2017-07-19T05:18:26.883Z,17.10
2017-07-19T05:20:55.214Z,15.27
2017-07-19T05:23:23.590Z,15.73
2017-07-19T05:25:51.913Z,15.67
2017-07-19T05:28:20.233Z,16.03
2017-07-19T05:30:48.584Z,15.13
2017-07-19T05:33:16.922Z,15.13
2017-07-19T05:35:45.293Z,16.20
2017-07-19T05:38:14.882Z,14.07
2017-07-19T05:40:43.228Z,14.37
2017-07-19T05:43:11.580Z,13.60
2017-07-19T05:45:39.929Z,13.40
2017-07-19T05:48:08.256Z,15.90
2017-07-19T05:50:36.622Z,15.17
2017-07-19T05:53:05.293Z,14.50
2017-07-19T05:55:33.621Z,14.33
2017-07-19T05:58:01.976Z,14.20
2017-07-19T06:00:30.294Z,13.00
2017-07-19T06:02:58.654Z,11.70
2017-07-19T06:05:27.137Z,11.43
2017-07-19T06:07:55.480Z,10.47
2017-07-19T06:10:23.874Z,10.73
2017-07-19T06:12:52.241Z,11.53
2017-07-19T06:15:20.569Z,11.20
2017-07-19T06:17:49.022Z,10.63
2017-07-19T06:20:17.378Z,11.20
2017-07-19T06:22:45.711Z,10.40
2017-07-19T06:25:14.074Z,11.43
2017-07-19T06:27:42.406Z,10.37
2017-07-19T06:30:10.748Z,10.20
2017-07-19T06:32:39.083Z,10.30
2017-07-19T06:35:07.436Z,10.13
2017-07-19T06:37:35.761Z,9.83
2017-07-19T06:40:04.119Z,9.90
2017-07-19T06:42:32.441Z,9.03
2017-07-19T06:45:00.771Z,10.30
2017-07-19T06:47:29.131Z,9.27
2017-07-19T06:49:57.469Z,9.43
2017-07-19T06:52:25.835Z,9.40
2017-07-19T06:54:54.178Z,9.10
2017-07-19T06:57:22.514Z,9.63
2017-07-19T06:59:50.848Z,10.00
2017-07-19T07:02:19.207Z,9.00
2017-07-19T07:04:47.534Z,8.50
2017-07-19T07:07:15.874Z,8.47
2017-07-19T07:09:44.207Z,9.00
2017-07-19T07:12:12.532Z,8.50
2017-07-19T07:14:40.891Z,7.80
2017-07-19T07:17:09.218Z,7.10
2017-07-19T07:19:37.561Z,7.73
2017-07-19T07:22:05.882Z,6.83
2017-07-19T07:24:34.224Z,7.80
2017-07-19T07:27:02.611Z,7.10
2017-07-19T07:29:30.965Z,7.03
2017-07-19T07:31:59.276Z,6.97
2017-07-19T07:34:27.624Z,6.90
2017-07-19T07:36:55.960Z,6.43
2017-07-19T07:39:24.329Z,6.60
2017-07-19T07:41:52.673Z,7.23
2017-07-19T07:44:21.000Z,6.63
2017-07-19T07:46:49.373Z,6.80
2017-07-19T07:49:17.700Z,6.10
2017-07-19T07:51:46.053Z,6.13
2017-07-19T07:54:14.383Z,6.83
2017-07-19T07:56:42.724Z,6.13
2017-07-19T07:59:11.042Z,6.70
2017-07-19T08:01:39.407Z,6.73
2017-07-19T08:04:07.724Z,5.23
2017-07-19T08:06:36.037Z,6.13
2017-07-19T08:09:04.369Z,5.67
2017-07-19T08:11:32.701Z,5.67
2017-07-19T08:14:01.056Z,5.70
2017-07-19T08:16:29.379Z,5.80
2017-07-19T08:21:25.178Z,5.50
2017-07-19T08:23:53.522Z,5.27
2017-07-19T08:26:21.863Z,5.27
2017-07-19T08:28:50.210Z,4.20
2017-07-19T08:31:18.548Z,3.97
2017-07-19T08:33:46.873Z,3.93
2017-07-19T08:36:15.219Z,4.10
2017-07-19T08:38:43.586Z,4.07
2017-07-19T08:41:11.920Z,4.50
2017-07-19T08:43:40.253Z,3.90
2017-07-19T08:46:08.594Z,3.73
2017-07-19T08:48:36.905Z,3.60
2017-07-19T08:51:05.239Z,3.67
2017-07-19T08:53:33.556Z,3.67
2017-07-19T08:56:01.904Z,3.87
2017-07-19T08:58:30.229Z,3.37
2017-07-19T09:00:59.482Z,3.60
2017-07-19T09:03:27.809Z,3.90
2017-07-19T09:05:56.134Z,4.10
2017-07-19T09:08:24.594Z,3.43
2017-07-19T09:10:52.916Z,4.30
2017-07-19T09:13:21.258Z,4.17
2017-07-19T09:15:49.582Z,4.57
2017-07-19T09:18:17.925Z,2.57
2017-07-19T09:20:46.244Z,2.87
2017-07-19T09:23:14.719Z,2.63
2017-07-19T09:25:43.026Z,2.97
2017-07-19T09:28:11.367Z,2.13
2017-07-19T09:30:39.715Z,2.47
2017-07-19T09:33:08.023Z,3.00
2017-07-19T09:35:36.353Z,3.47
2017-07-19T09:38:04.756Z,2.77
2017-07-19T09:40:33.119Z,3.10
2017-07-19T09:43:01.499Z,2.63
2017-07-19T09:45:29.836Z,2.90
2017-07-19T09:47:58.146Z,3.00
2017-07-19T09:50:26.479Z,2.80
2017-07-19T09:52:54.906Z,2.77
2017-07-19T09:55:23.236Z,2.40
2017-07-19T09:57:51.605Z,2.90
2017-07-19T10:00:19.936Z,2.10
2017-07-19T10:02:48.288Z,2.53
2017-07-19T10:05:16.629Z,2.07
2017-07-19T10:13:45.089Z,1.93
2017-07-19T10:16:13.434Z,2.50
2017-07-19T10:18:41.744Z,2.10
2017-07-19T10:21:10.065Z,1.80
2017-07-19T10:23:38.413Z,1.90
2017-07-19T10:26:06.717Z,2.00
2017-07-19T10:28:35.092Z,2.10
2017-07-19T10:31:03.441Z,1.97
2017-07-19T10:33:31.770Z,1.83
2017-07-19T10:36:00.093Z,2.17
2017-07-19T10:38:28.441Z,2.30
2017-07-19T10:40:56.753Z,2.50
2017-07-19T10:43:25.104Z,2.20
2017-07-19T10:45:53.475Z,2.00
2017-07-19T10:48:21.807Z,1.80
2017-07-19T10:50:50.136Z,1.97
2017-07-19T10:53:18.453Z,2.23
2017-07-19T10:55:46.795Z,1.80
2017-07-19T10:58:15.118Z,1.70
2017-07-19T11:00:43.521Z,2.07
2017-07-19T11:03:11.854Z,2.30
2017-07-19T11:05:40.193Z,2.07
2017-07-19T11:08:08.502Z,2.23
2017-07-19T11:10:36.894Z,1.87
2017-07-19T11:13:05.523Z,2.20
2017-07-19T11:15:34.714Z,1.90
2017-07-19T11:18:03.046Z,2.60
2017-07-19T11:20:31.406Z,2.30
2017-07-19T11:22:59.738Z,2.00
2017-07-19T11:25:28.060Z,1.93
2017-07-19T11:27:56.399Z,1.67
2017-07-19T11:30:24.712Z,2.10
2017-07-19T11:32:53.056Z,2.30
2017-07-19T11:35:21.378Z,1.97
2017-07-19T11:37:49.729Z,2.07
2017-07-19T11:40:18.041Z,1.90
2017-07-19T11:42:46.393Z,2.20
2017-07-19T11:45:14.714Z,3.70
2017-07-19T11:47:43.053Z,1.70
2017-07-19T11:50:11.377Z,1.87
2017-07-19T11:52:39.726Z,2.00
2017-07-19T11:55:08.041Z,2.00
2017-07-19T11:57:36.358Z,1.80
2017-07-19T12:00:04.734Z,1.60
2017-07-19T12:02:33.102Z,1.67
2017-07-19T12:05:01.455Z,2.00
2017-07-19T12:07:29.802Z,1.70
2017-07-19T12:09:58.153Z,2.43
2017-07-19T12:12:26.502Z,1.73
2017-07-19T12:14:54.933Z,1.70
2017-07-19T12:17:23.280Z,1.93
2017-07-19T12:19:51.676Z,1.67
2017-07-19T12:22:20.030Z,1.90
2017-07-19T12:24:48.392Z,1.60
2017-07-19T12:29:45.099Z,1.50
2017-07-19T12:32:13.498Z,1.33
2017-07-19T12:34:41.901Z,1.47
2017-07-19T12:37:10.351Z,1.60
2017-07-19T12:39:38.916Z,1.97
2017-07-19T12:42:07.487Z,1.93
2017-07-19T12:44:35.916Z,1.50
2017-07-19T12:47:04.341Z,1.80
2017-07-19T12:49:32.841Z,1.77
2017-07-19T12:52:01.279Z,1.97
2017-07-19T12:54:29.656Z,1.67
2017-07-19T12:56:58.085Z,1.73
2017-07-19T12:59:26.521Z,1.60
2017-07-19T13:01:54.909Z,1.73
2017-07-19T13:04:23.336Z,1.80
2017-07-19T13:06:51.752Z,2.20
2017-07-19T13:09:20.182Z,1.80
2017-07-19T13:11:48.605Z,2.00
2017-07-19T13:14:16.977Z,1.60
2017-07-19T13:16:45.393Z,1.70
2017-07-19T13:19:13.817Z,1.57
2017-07-19T13:21:42.196Z,1.57
2017-07-19T13:24:10.598Z,1.73
2017-07-19T13:26:39.017Z,2.10
2017-07-19T13:29:07.389Z,1.83
2017-07-19T13:31:35.813Z,1.90
2017-07-19T13:34:04.200Z,1.50
2017-07-19T13:36:32.641Z,1.43
2017-07-19T13:39:01.020Z,1.87
2017-07-19T13:41:29.472Z,1.70
2017-07-19T13:43:57.902Z,1.73
2017-07-19T13:46:26.334Z,1.93
2017-07-19T13:48:54.806Z,2.10
2017-07-19T13:51:23.274Z,1.87
2017-07-19T13:53:51.641Z,1.40
2017-07-19T13:56:20.061Z,1.70
2017-07-19T13:58:48.482Z,1.37
2017-07-19T14:01:16.877Z,1.77
2017-07-19T14:03:45.385Z,2.30
2017-07-19T14:06:13.996Z,1.80
2017-07-19T14:08:42.400Z,1.70
2017-07-19T14:11:11.191Z,1.77
2017-07-19T14:13:39.667Z,1.77
2017-07-19T14:16:08.092Z,1.70
2017-07-19T14:18:36.511Z,1.83
2017-07-19T14:21:04.920Z,1.50
2017-07-19T14:23:33.363Z,1.47
2017-07-19T14:26:01.773Z,1.40
2017-07-19T14:28:30.198Z,2.03
2017-07-19T14:30:58.595Z,1.80
2017-07-19T14:33:27.014Z,2.10
2017-07-19T14:35:55.429Z,1.73
2017-07-19T14:38:23.831Z,1.73
2017-07-19T14:40:52.507Z,1.53
2017-07-19T14:43:21.873Z,1.80
2017-07-19T14:45:50.340Z,1.80
2017-07-19T14:48:18.794Z,2.30
2017-07-19T14:50:47.257Z,1.87
2017-07-19T14:53:15.632Z,1.87
2017-07-19T14:55:44.126Z,2.13
2017-07-19T14:58:12.556Z,1.97
2017-07-19T15:00:40.958Z,1.93
2017-07-19T15:03:09.387Z,1.60
2017-07-19T15:05:37.848Z,1.93
2017-07-19T15:08:06.237Z,2.20
2017-07-19T15:10:34.700Z,1.70
2017-07-19T15:13:03.146Z,2.07
2017-07-19T15:15:31.530Z,2.00
2017-07-19T15:18:00.030Z,1.70
2017-07-19T15:20:28.410Z,1.80
2017-07-19T15:22:56.859Z,2.10
2017-07-19T15:25:25.278Z,2.37
2017-07-19T15:27:53.678Z,2.27
2017-07-19T15:30:22.070Z,2.00
2017-07-19T15:32:50.505Z,2.10
2017-07-19T15:35:18.932Z,1.73
2017-07-19T15:37:47.400Z,2.10
2017-07-19T15:40:15.827Z,2.20
2017-07-19T15:42:44.323Z,2.03
2017-07-19T15:45:12.708Z,2.30
2017-07-19T15:47:41.103Z,1.97
2017-07-19T15:50:09.827Z,2.17
2017-07-19T15:52:38.239Z,2.40
2017-07-19T15:55:06.666Z,2.10
2017-07-19T15:57:38.743Z,2.00
2017-07-19T16:00:07.200Z,2.20
2017-07-19T16:02:35.678Z,2.23
2017-07-19T16:05:04.089Z,2.30
2017-07-19T16:07:32.459Z,1.90
2017-07-19T16:10:00.923Z,1.87
2017-07-19T16:12:29.317Z,1.87
2017-07-19T16:14:57.762Z,1.87
2017-07-19T16:17:26.261Z,1.80
2017-07-19T16:19:54.669Z,2.30
2017-07-19T16:22:23.133Z,2.20
2017-07-19T16:24:51.514Z,2.20
2017-07-19T16:27:19.967Z,2.37
2017-07-19T16:29:48.375Z,2.47
2017-07-19T16:32:16.800Z,2.20
2017-07-19T16:34:45.259Z,2.27
2017-07-19T16:37:13.707Z,2.57
2017-07-19T16:39:42.082Z,2.67
2017-07-19T16:42:10.506Z,1.87
2017-07-19T16:44:39.834Z,2.50
2017-07-19T16:47:20.858Z,2.00
2017-07-19T16:49:49.279Z,2.37
2017-07-19T16:52:17.694Z,2.13
2017-07-19T16:54:46.166Z,1.90
2017-07-19T16:57:14.590Z,2.63
2017-07-19T16:59:43.066Z,2.10
2017-07-19T17:02:11.530Z,2.30
2017-07-19T17:04:39.959Z,2.10
2017-07-19T17:07:08.374Z,2.70
2017-07-19T17:09:36.781Z,2.43
2017-07-19T17:12:05.162Z,2.10
2017-07-19T17:14:33.666Z,2.23
2017-07-19T17:17:02.128Z,2.33
2017-07-19T17:19:30.634Z,2.77
2017-07-19T17:21:59.115Z,1.83
2017-07-19T17:24:27.628Z,2.10
2017-07-19T17:26:56.113Z,2.33
2017-07-19T17:29:24.564Z,2.53
2017-07-19T17:31:53.051Z,2.13
2017-07-19T17:34:21.528Z,3.10
2017-07-19T17:36:49.952Z,2.40
2017-07-19T17:39:18.370Z,2.60
2017-07-19T17:41:46.839Z,2.27
2017-07-19T17:44:15.267Z,2.60
2017-07-19T17:46:43.690Z,2.30
2017-07-19T17:49:12.024Z,2.67
2017-07-19T17:51:40.385Z,3.03
2017-07-19T17:54:08.725Z,2.83
2017-07-19T17:56:37.094Z,2.73
2017-07-19T17:59:12.406Z,3.30
2017-07-19T18:01:40.792Z,3.70
2017-07-19T18:04:09.141Z,3.80
2017-07-19T18:06:37.491Z,4.30
2017-07-19T18:09:05.829Z,3.70
2017-07-19T18:11:34.371Z,3.90
2017-07-19T18:14:02.729Z,3.70
2017-07-19T18:16:31.153Z,4.10
2017-07-19T18:18:59.508Z,4.37
2017-07-19T18:21:27.858Z,4.50
2017-07-19T18:23:56.254Z,5.00
2017-07-19T18:26:24.589Z,5.83
2017-07-19T18:28:52.954Z,5.50
2017-07-19T18:31:21.380Z,6.70
2017-07-19T18:33:49.724Z,7.90
2017-07-19T18:36:21.341Z,7.63
2017-07-19T18:38:49.676Z,7.60
2017-07-19T18:41:18.063Z,6.40
2017-07-19T18:43:46.400Z,6.63
2017-07-19T18:46:14.750Z,5.57
2017-07-19T18:48:43.111Z,6.77
2017-07-19T18:51:11.464Z,7.30
2017-07-19T18:53:39.789Z,7.30
2017-07-19T18:56:08.156Z,5.80
2017-07-19T18:58:36.488Z,7.60
2017-07-19T19:01:04.845Z,7.43
2017-07-19T19:03:33.167Z,6.90
2017-07-19T19:06:01.503Z,7.07
2017-07-19T19:08:29.836Z,6.60
2017-07-19T19:10:58.188Z,7.27
2017-07-19T19:13:26.508Z,7.33
2017-07-19T19:15:54.827Z,7.37
2017-07-19T19:18:23.176Z,6.97
2017-07-19T19:20:51.504Z,7.10
2017-07-19T19:23:19.856Z,7.97
2017-07-19T19:25:48.204Z,6.40
2017-07-19T19:28:16.558Z,7.30
2017-07-19T19:30:45.200Z,6.80
2017-07-19T19:33:13.556Z,6.90
2017-07-19T19:35:41.871Z,7.43
2017-07-19T19:38:10.219Z,7.90
2017-07-19T19:40:38.542Z,7.00
2017-07-19T19:43:07.606Z,7.17
2017-07-19T19:45:35.929Z,6.80
2017-07-19T19:48:04.292Z,7.23
2017-07-19T19:50:32.633Z,6.37
2017-07-19T19:53:00.954Z,7.63
2017-07-19T19:55:29.293Z,7.70
2017-07-19T19:57:57.610Z,5.60
2017-07-19T20:00:25.956Z,6.70
2017-07-19T20:02:54.272Z,7.07
2017-07-19T20:05:22.631Z,7.70
2017-07-19T20:07:50.946Z,7.37
2017-07-19T20:10:19.277Z,7.80
2017-07-19T20:12:47.601Z,7.60
2017-07-19T20:15:15.949Z,6.90
2017-07-19T20:17:44.270Z,6.47
2017-07-19T20:20:12.635Z,7.30
2017-07-19T20:22:40.967Z,7.63
2017-07-19T20:25:10.285Z,7.70
2017-07-19T20:27:38.625Z,8.33
2017-07-19T20:30:06.951Z,8.60
2017-07-19T20:35:35.758Z,9.00
2017-07-19T20:38:04.214Z,7.70
2017-07-19T20:40:32.555Z,8.53
2017-07-19T20:43:00.969Z,8.57
2017-07-19T20:45:29.293Z,8.13
2017-07-19T20:47:57.634Z,7.23
2017-07-19T20:50:25.960Z,6.40
2017-07-19T20:52:54.390Z,8.07
2017-07-19T20:55:22.704Z,7.53
2017-07-19T20:57:51.994Z,6.90
2017-07-19T21:00:20.333Z,7.80
2017-07-19T21:02:48.662Z,7.23
2017-07-19T21:05:17.038Z,7.60
2017-07-19T21:07:45.378Z,7.10
2017-07-19T21:10:17.533Z,6.63
2017-07-19T21:12:45.903Z,7.53
2017-07-19T21:15:14.289Z,7.03
2017-07-19T21:17:42.642Z,7.47
2017-07-19T21:20:11.036Z,7.67
2017-07-19T21:22:39.416Z,6.53
2017-07-19T21:25:07.831Z,7.63
2017-07-19T21:27:36.183Z,6.80
2017-07-19T21:30:04.552Z,7.30
2017-07-19T21:32:32.948Z,7.63
2017-07-19T21:35:01.310Z,8.00
2017-07-19T21:37:29.687Z,7.10
2017-07-19T21:39:58.062Z,8.20
2017-07-19T21:42:26.461Z,8.73
2017-07-19T21:44:54.827Z,7.43
2017-07-19T21:47:23.211Z,8.23
2017-07-19T21:49:51.581Z,8.37
2017-07-19T21:52:19.979Z,8.20
2017-07-19T21:54:48.355Z,8.37
2017-07-19T21:57:16.717Z,8.73
2017-07-19T21:59:45.106Z,7.90
2017-07-19T22:02:24.302Z,8.33
2017-07-19T22:04:52.688Z,8.10
2017-07-19T22:07:21.045Z,8.70
2017-07-19T22:09:49.436Z,8.40
2017-07-19T22:12:17.802Z,6.87
2017-07-19T22:14:46.189Z,6.53
2017-07-19T22:17:14.544Z,6.63
2017-07-19T22:19:42.995Z,7.40
2017-07-19T22:22:11.369Z,6.77
2017-07-19T22:24:39.760Z,7.10
2017-07-19T22:27:08.140Z,6.40
2017-07-19T22:29:36.510Z,7.10
2017-07-19T22:32:04.904Z,6.77
2017-07-19T22:34:37.902Z,6.60
2017-07-19T22:37:06.297Z,5.93
2017-07-19T22:39:34.674Z,6.70
2017-07-19T22:42:03.060Z,5.60
2017-07-19T22:44:31.570Z,4.40
2017-07-19T22:46:59.974Z,5.10
2017-07-19T22:49:28.332Z,5.30
2017-07-19T22:51:56.734Z,4.17
2017-07-19T22:54:25.090Z,4.87
2017-07-19T22:56:53.454Z,5.00
2017-07-19T22:59:22.822Z,5.03
2017-07-19T23:01:51.192Z,4.60
2017-07-19T23:04:19.575Z,4.80
2017-07-19T23:06:47.941Z,3.83
2017-07-19T23:09:16.336Z,5.53
2017-07-19T23:11:44.719Z,5.27
2017-07-19T23:14:13.370Z,3.90
2017-07-19T23:16:52.783Z,3.90
2017-07-19T23:19:21.153Z,4.40
2017-07-19T23:21:49.540Z,4.30
2017-07-19T23:24:17.947Z,4.33
2017-07-19T23:26:46.317Z,4.20
2017-07-19T23:29:14.717Z,4.43
2017-07-19T23:31:43.090Z,3.90
2017-07-19T23:34:11.463Z,4.70
2017-07-19T23:36:39.853Z,5.43
2017-07-19T23:39:08.231Z,7.37
2017-07-19T23:41:36.636Z,5.20
2017-07-19T23:44:04.996Z,5.37
2017-07-19T23:46:33.380Z,4.70
2017-07-19T23:49:01.752Z,5.70
2017-07-19T23:51:30.158Z,6.40
2017-07-19T23:53:58.522Z,4.30
2017-07-19T23:56:26.899Z,4.90
2017-07-19T23:58:55.280Z,5.53
